createdAt,value
2019-02-27T00:00:01.194Z,8.56
2019-02-27T00:00:11.324Z,8.56
2019-02-27T00:00:16.196Z,8.55
2019-02-27T00:00:20.513Z,8.55
2019-02-27T00:00:24.805Z,8.55
2019-02-27T00:00:29.090Z,8.54
2019-02-27T00:00:33.381Z,8.54
2019-02-27T00:00:37.694Z,8.55
2019-02-27T00:00:46.115Z,8.54
2019-02-27T00:00:50.417Z,8.53
2019-02-27T00:00:54.709Z,8.53
2019-02-27T00:00:59.002Z,8.53
2019-02-27T00:01:03.203Z,8.53
2019-02-27T00:01:07.497Z,8.53
2019-02-27T00:01:11.791Z,8.52
2019-02-27T00:01:20.576Z,8.51
2019-02-27T00:01:24.881Z,8.51
2019-02-27T00:01:29.185Z,8.51
2019-02-27T00:01:33.384Z,8.51
2019-02-27T00:01:37.669Z,8.51
2019-02-27T00:01:41.979Z,8.51
2019-02-27T00:01:50.542Z,8.51
2019-02-27T00:01:54.856Z,8.52
2019-02-27T00:01:59.150Z,8.51
2019-02-27T00:02:03.409Z,8.51
2019-02-27T00:02:07.695Z,8.51
2019-02-27T00:02:11.985Z,8.52
2019-02-27T00:02:16.278Z,8.51
2019-02-27T00:02:25.010Z,8.52
2019-02-27T00:02:29.294Z,8.53
2019-02-27T00:02:33.592Z,8.52
2019-02-27T00:02:37.882Z,8.51
2019-02-27T00:02:42.169Z,8.51
2019-02-27T00:02:46.459Z,8.52
2019-02-27T00:02:50.756Z,8.52
2019-02-27T00:02:59.626Z,8.52
2019-02-27T00:03:04.070Z,8.52
2019-02-27T00:03:08.359Z,8.52
2019-02-27T00:03:12.651Z,8.52
2019-02-27T00:03:16.845Z,8.51
2019-02-27T00:03:21.145Z,8.52
2019-02-27T00:03:29.752Z,8.5
2019-02-27T00:03:34.046Z,8.52
2019-02-27T00:03:38.343Z,8.51
2019-02-27T00:03:42.647Z,8.53
2019-02-27T00:03:46.941Z,8.52
2019-02-27T00:03:51.181Z,8.52
2019-02-27T00:03:55.472Z,8.52
2019-02-27T00:04:04.545Z,8.53
2019-02-27T00:04:08.844Z,8.53
2019-02-27T00:04:13.129Z,8.53
2019-02-27T00:04:17.416Z,8.53
2019-02-27T00:04:21.704Z,8.53
2019-02-27T00:04:26.003Z,8.53
2019-02-27T00:04:30.296Z,8.53
2019-02-27T00:04:38.558Z,8.53
2019-02-27T00:04:42.852Z,8.54
2019-02-27T00:04:47.138Z,8.53
2019-02-27T00:04:51.447Z,8.54
2019-02-27T00:04:55.757Z,8.54
2019-02-27T00:05:00.048Z,8.54
2019-02-27T00:05:08.350Z,8.54
2019-02-27T00:05:13.227Z,8.55
2019-02-27T00:05:17.521Z,8.54
2019-02-27T00:05:21.809Z,8.54
2019-02-27T00:05:26.092Z,8.55
2019-02-27T00:05:30.191Z,8.54
2019-02-27T00:05:34.379Z,8.55
2019-02-27T00:05:43.898Z,8.54
2019-02-27T00:05:48.192Z,8.54
2019-02-27T00:05:52.479Z,8.55
2019-02-27T00:05:56.664Z,8.54
2019-02-27T00:06:00.954Z,8.55
2019-02-27T00:06:05.243Z,8.55
2019-02-27T00:06:09.538Z,8.55
2019-02-27T00:06:18.182Z,8.54
2019-02-27T00:06:22.500Z,8.55
2019-02-27T00:06:26.789Z,8.54
2019-02-27T00:06:31.080Z,8.55
2019-02-27T00:06:35.371Z,8.55
2019-02-27T00:06:39.673Z,8.54
2019-02-27T00:06:47.623Z,8.54
2019-02-27T00:06:52.111Z,8.54
2019-02-27T00:06:56.306Z,8.53
2019-02-27T00:07:00.598Z,8.53
2019-02-27T00:07:04.889Z,8.54
2019-02-27T00:07:09.178Z,8.53
2019-02-27T00:07:13.495Z,8.53
2019-02-27T00:07:21.754Z,8.54
2019-02-27T00:07:25.964Z,8.52
2019-02-27T00:07:30.247Z,8.53
2019-02-27T00:07:34.535Z,8.53
2019-02-27T00:07:38.819Z,8.53
2019-02-27T00:07:43.113Z,8.53
2019-02-27T00:07:47.397Z,8.52
2019-02-27T00:07:56.516Z,8.52
2019-02-27T00:08:00.809Z,8.52
2019-02-27T00:08:05.009Z,8.51
2019-02-27T00:08:09.299Z,8.51
2019-02-27T00:08:13.585Z,8.52
2019-02-27T00:08:17.882Z,8.52
2019-02-27T00:08:22.172Z,8.51
2019-02-27T00:08:30.465Z,8.51
2019-02-27T00:08:34.748Z,8.51
2019-02-27T00:08:39.041Z,8.5
2019-02-27T00:08:43.332Z,8.51
2019-02-27T00:08:47.630Z,8.51
2019-02-27T00:08:51.820Z,8.5
2019-02-27T00:09:01.205Z,8.5
2019-02-27T00:09:05.683Z,8.49
2019-02-27T00:09:09.971Z,8.5
2019-02-27T00:09:14.327Z,8.5
2019-02-27T00:09:18.614Z,8.5
2019-02-27T00:09:22.907Z,8.51
2019-02-27T00:09:27.199Z,8.5
2019-02-27T00:09:35.667Z,8.51
2019-02-27T00:09:39.952Z,8.51
2019-02-27T00:09:44.241Z,8.5
2019-02-27T00:09:48.531Z,8.51
2019-02-27T00:09:52.824Z,8.5
2019-02-27T00:09:57.110Z,8.49
2019-02-27T00:10:05.817Z,8.5
2019-02-27T00:10:10.471Z,8.51
2019-02-27T00:10:14.659Z,8.51
2019-02-27T00:10:18.956Z,8.49
2019-02-27T00:10:23.268Z,8.5
2019-02-27T00:10:27.557Z,8.51
2019-02-27T00:10:31.890Z,8.5
2019-02-27T00:10:40.635Z,8.5
2019-02-27T00:10:44.930Z,8.5
2019-02-27T00:10:49.220Z,8.51
2019-02-27T00:10:53.512Z,8.5
2019-02-27T00:10:57.803Z,8.5
2019-02-27T00:11:01.989Z,8.49
2019-02-27T00:11:06.346Z,8.5
2019-02-27T00:11:15.090Z,8.5
2019-02-27T00:11:19.380Z,8.5
2019-02-27T00:11:23.678Z,8.49
2019-02-27T00:11:27.963Z,8.49
2019-02-27T00:11:32.249Z,8.5
2019-02-27T00:11:36.554Z,8.5
2019-02-27T00:11:45.820Z,8.5
2019-02-27T00:11:50.399Z,8.5
2019-02-27T00:11:54.707Z,8.5
2019-02-27T00:11:59.034Z,8.5
2019-02-27T00:12:03.325Z,8.5
2019-02-27T00:12:07.620Z,8.5
2019-02-27T00:12:11.909Z,8.5
2019-02-27T00:12:20.783Z,8.5
2019-02-27T00:12:25.076Z,8.5
2019-02-27T00:12:29.359Z,8.5
2019-02-27T00:12:33.642Z,8.51
2019-02-27T00:12:37.754Z,8.51
2019-02-27T00:12:42.047Z,8.51
2019-02-27T00:12:46.337Z,8.51
2019-02-27T00:12:54.832Z,8.51
2019-02-27T00:12:59.125Z,8.52
2019-02-27T00:13:03.525Z,8.52
2019-02-27T00:13:07.711Z,8.53
2019-02-27T00:13:11.998Z,8.53
2019-02-27T00:13:16.301Z,8.54
2019-02-27T00:13:24.659Z,8.53
2019-02-27T00:13:29.120Z,8.53
2019-02-27T00:13:33.415Z,8.54
2019-02-27T00:13:37.707Z,8.54
2019-02-27T00:13:42.002Z,8.54
2019-02-27T00:13:46.290Z,8.55
2019-02-27T00:13:50.585Z,8.55
2019-02-27T00:13:59.392Z,8.55
2019-02-27T00:14:03.748Z,8.55
2019-02-27T00:14:08.039Z,8.56
2019-02-27T00:14:12.335Z,8.56
2019-02-27T00:14:16.621Z,8.56
2019-02-27T00:14:20.815Z,8.56
2019-02-27T00:14:25.115Z,8.56
2019-02-27T00:14:33.899Z,8.57
2019-02-27T00:14:38.095Z,8.57
2019-02-27T00:14:42.381Z,8.57
2019-02-27T00:14:46.665Z,8.58
2019-02-27T00:14:50.950Z,8.58
2019-02-27T00:14:55.235Z,8.59
2019-02-27T00:15:02.041Z,8.58
2019-02-27T00:15:09.595Z,8.58
2019-02-27T00:15:13.793Z,8.6
2019-02-27T00:15:18.086Z,8.6
2019-02-27T00:15:22.383Z,8.6
2019-02-27T00:15:26.668Z,8.6
2019-02-27T00:15:30.951Z,8.61
2019-02-27T00:15:39.390Z,8.61
2019-02-27T00:15:43.686Z,8.62
2019-02-27T00:15:47.969Z,8.62
2019-02-27T00:15:52.281Z,8.62
2019-02-27T00:15:56.570Z,8.62
2019-02-27T00:16:00.762Z,8.63
2019-02-27T00:16:05.062Z,8.63
2019-02-27T00:16:13.853Z,8.63
2019-02-27T00:16:18.053Z,8.63
2019-02-27T00:16:22.342Z,8.63
2019-02-27T00:16:26.637Z,8.64
2019-02-27T00:16:30.979Z,8.64
2019-02-27T00:16:35.189Z,8.64
2019-02-27T00:16:41.702Z,8.64
2019-02-27T00:16:48.954Z,8.64
2019-02-27T00:16:53.247Z,8.65
2019-02-27T00:16:57.539Z,8.65
2019-02-27T00:17:01.867Z,8.66
2019-02-27T00:17:08.218Z,8.67
2019-02-27T00:17:15.048Z,8.66
2019-02-27T00:17:22.462Z,8.67
2019-02-27T00:17:26.755Z,8.67
2019-02-27T00:17:31.045Z,8.67
2019-02-27T00:17:35.370Z,8.68
2019-02-27T00:17:39.672Z,8.68
2019-02-27T00:17:43.970Z,8.69
2019-02-27T00:17:52.870Z,8.69
2019-02-27T00:17:57.154Z,8.69
2019-02-27T00:18:01.415Z,8.69
2019-02-27T00:18:05.756Z,8.69
2019-02-27T00:18:10.049Z,8.7
2019-02-27T00:18:14.341Z,8.7
2019-02-27T00:18:18.634Z,8.7
2019-02-27T00:18:27.507Z,8.7
2019-02-27T00:18:31.797Z,8.7
2019-02-27T00:18:35.986Z,8.7
2019-02-27T00:18:40.186Z,8.7
2019-02-27T00:18:44.383Z,8.7
2019-02-27T00:18:48.672Z,8.71
2019-02-27T00:18:58.501Z,8.71
2019-02-27T00:19:03.078Z,8.72
2019-02-27T00:19:07.393Z,8.72
2019-02-27T00:19:11.738Z,8.72
2019-02-27T00:19:16.031Z,8.72
2019-02-27T00:19:20.316Z,8.72
2019-02-27T00:19:24.622Z,8.72
2019-02-27T00:19:33.461Z,8.72
2019-02-27T00:19:37.751Z,8.73
2019-02-27T00:19:42.058Z,8.73
2019-02-27T00:19:46.360Z,8.73
2019-02-27T00:19:50.650Z,8.72
2019-02-27T00:19:54.946Z,8.73
2019-02-27T00:19:59.238Z,8.74
2019-02-27T00:20:08.301Z,8.73
2019-02-27T00:20:12.492Z,8.73
2019-02-27T00:20:16.800Z,8.74
2019-02-27T00:20:20.992Z,8.74
2019-02-27T00:20:25.279Z,8.74
2019-02-27T00:20:29.577Z,8.75
2019-02-27T00:20:38.482Z,8.74
2019-02-27T00:20:42.770Z,8.75
2019-02-27T00:20:47.065Z,8.75
2019-02-27T00:20:51.355Z,8.75
2019-02-27T00:20:55.645Z,8.75
2019-02-27T00:20:59.941Z,8.74
2019-02-27T00:21:04.289Z,8.75
2019-02-27T00:21:13.473Z,8.74
2019-02-27T00:21:17.764Z,8.75
2019-02-27T00:21:22.060Z,8.75
2019-02-27T00:21:26.358Z,8.75
2019-02-27T00:21:30.546Z,8.75
2019-02-27T00:21:34.844Z,8.75
2019-02-27T00:21:44.344Z,8.74
2019-02-27T00:21:48.655Z,8.75
2019-02-27T00:21:52.943Z,8.75
2019-02-27T00:21:57.240Z,8.74
2019-02-27T00:22:01.546Z,8.74
2019-02-27T00:22:05.836Z,8.74
2019-02-27T00:22:10.141Z,8.74
2019-02-27T00:22:19.173Z,8.74
2019-02-27T00:22:23.462Z,8.74
2019-02-27T00:22:27.753Z,8.74
2019-02-27T00:22:32.038Z,8.73
2019-02-27T00:22:36.327Z,8.72
2019-02-27T00:22:40.626Z,8.73
2019-02-27T00:22:44.919Z,8.74
2019-02-27T00:22:54.538Z,8.74
2019-02-27T00:22:58.827Z,8.73
2019-02-27T00:23:03.124Z,8.73
2019-02-27T00:23:07.418Z,8.73
2019-02-27T00:23:11.723Z,8.73
2019-02-27T00:23:15.923Z,8.73
2019-02-27T00:23:24.719Z,8.73
2019-02-27T00:23:29.008Z,8.74
2019-02-27T00:23:33.291Z,8.73
2019-02-27T00:23:37.586Z,8.73
2019-02-27T00:23:41.875Z,8.72
2019-02-27T00:23:46.177Z,8.73
2019-02-27T00:23:50.465Z,8.73
2019-02-27T00:23:59.012Z,8.73
2019-02-27T00:24:03.359Z,8.73
2019-02-27T00:24:07.645Z,8.72
2019-02-27T00:24:11.938Z,8.73
2019-02-27T00:24:16.239Z,8.73
2019-02-27T00:24:20.532Z,8.73
2019-02-27T00:24:27.025Z,8.73
2019-02-27T00:24:34.221Z,8.72
2019-02-27T00:24:38.521Z,8.72
2019-02-27T00:24:42.810Z,8.73
2019-02-27T00:24:47.093Z,8.72
2019-02-27T00:24:51.376Z,8.72
2019-02-27T00:24:55.663Z,8.72
2019-02-27T00:25:04.938Z,8.71
2019-02-27T00:25:09.233Z,8.73
2019-02-27T00:25:13.526Z,8.73
2019-02-27T00:25:17.813Z,8.73
2019-02-27T00:25:22.019Z,8.73
2019-02-27T00:25:26.210Z,8.72
2019-02-27T00:25:30.496Z,8.72
2019-02-27T00:25:38.940Z,8.71
2019-02-27T00:25:43.227Z,8.72
2019-02-27T00:25:47.515Z,8.71
2019-02-27T00:25:51.800Z,8.71
2019-02-27T00:25:56.106Z,8.7
2019-02-27T00:26:00.309Z,8.71
2019-02-27T00:26:08.722Z,8.71
2019-02-27T00:26:13.142Z,8.7
2019-02-27T00:26:17.344Z,8.7
2019-02-27T00:26:21.541Z,8.69
2019-02-27T00:26:25.824Z,8.7
2019-02-27T00:26:30.115Z,8.7
2019-02-27T00:26:34.404Z,8.7
2019-02-27T00:26:43.844Z,8.7
2019-02-27T00:26:48.156Z,8.7
2019-02-27T00:26:52.439Z,8.71
2019-02-27T00:26:56.735Z,8.69
2019-02-27T00:27:00.964Z,8.7
2019-02-27T00:27:05.369Z,8.7
2019-02-27T00:27:09.699Z,8.7
2019-02-27T00:27:18.182Z,8.7
2019-02-27T00:27:22.471Z,8.7
2019-02-27T00:27:26.668Z,8.7
2019-02-27T00:27:30.869Z,8.7
2019-02-27T00:27:35.077Z,8.69
2019-02-27T00:27:39.282Z,8.7
2019-02-27T00:27:48.668Z,8.7
2019-02-27T00:27:53.613Z,8.69
2019-02-27T00:27:57.902Z,8.7
2019-02-27T00:28:02.212Z,8.69
2019-02-27T00:28:06.437Z,8.69
2019-02-27T00:28:10.724Z,8.69
2019-02-27T00:28:15.026Z,8.69
2019-02-27T00:28:23.094Z,8.69
2019-02-27T00:28:27.630Z,8.7
2019-02-27T00:28:31.931Z,8.69
2019-02-27T00:28:36.218Z,8.69
2019-02-27T00:28:40.410Z,8.69
2019-02-27T00:28:44.775Z,8.69
2019-02-27T00:28:49.063Z,8.69
2019-02-27T00:28:57.582Z,8.69
2019-02-27T00:29:01.706Z,8.68
2019-02-27T00:29:06.147Z,8.68
2019-02-27T00:29:10.353Z,8.68
2019-02-27T00:29:14.555Z,8.69
2019-02-27T00:29:18.849Z,8.68
2019-02-27T00:29:23.046Z,8.69
2019-02-27T00:29:31.718Z,8.68
2019-02-27T00:29:36.019Z,8.69
2019-02-27T00:29:40.116Z,8.68
2019-02-27T00:29:44.406Z,8.68
2019-02-27T00:29:48.700Z,8.68
2019-02-27T00:29:52.907Z,8.68
2019-02-27T00:29:59.416Z,8.69
2019-02-27T00:30:09.294Z,8.68
2019-02-27T00:30:13.491Z,8.68
2019-02-27T00:30:17.782Z,8.68
2019-02-27T00:30:22.074Z,8.68
2019-02-27T00:30:26.359Z,8.67
2019-02-27T00:30:30.649Z,8.67
2019-02-27T00:30:39.529Z,8.66
2019-02-27T00:30:43.814Z,8.66
2019-02-27T00:30:48.100Z,8.66
2019-02-27T00:30:52.393Z,8.65
2019-02-27T00:30:56.682Z,8.66
2019-02-27T00:31:02.535Z,8.66
2019-02-27T00:31:11.099Z,8.66
2019-02-27T00:31:15.838Z,8.65
2019-02-27T00:31:20.141Z,8.65
2019-02-27T00:31:24.338Z,8.64
2019-02-27T00:31:28.633Z,8.65
2019-02-27T00:31:32.929Z,8.65
2019-02-27T00:31:37.220Z,8.64
2019-02-27T00:31:46.182Z,8.64
2019-02-27T00:31:50.563Z,8.64
2019-02-27T00:31:54.854Z,8.64
2019-02-27T00:31:59.151Z,8.65
2019-02-27T00:32:03.453Z,8.64
2019-02-27T00:32:07.754Z,8.64
2019-02-27T00:32:12.054Z,8.63
2019-02-27T00:32:21.407Z,8.63
2019-02-27T00:32:25.711Z,8.64
2019-02-27T00:32:30.011Z,8.64
2019-02-27T00:32:34.300Z,8.62
2019-02-27T00:32:38.497Z,8.63
2019-02-27T00:32:42.800Z,8.63
2019-02-27T00:32:51.937Z,8.64
2019-02-27T00:32:56.238Z,8.63
2019-02-27T00:33:00.521Z,8.63
2019-02-27T00:33:04.823Z,8.63
2019-02-27T00:33:09.130Z,8.63
2019-02-27T00:33:13.334Z,8.63
2019-02-27T00:33:17.524Z,8.62
2019-02-27T00:33:30.013Z,8.63
2019-02-27T00:33:34.203Z,8.62
2019-02-27T00:33:38.489Z,8.62
2019-02-27T00:33:42.778Z,8.62
2019-02-27T00:33:47.068Z,8.62
2019-02-27T00:33:51.350Z,8.62
2019-02-27T00:34:00.571Z,8.61
2019-02-27T00:34:04.888Z,8.62
2019-02-27T00:34:09.182Z,8.61
2019-02-27T00:34:13.471Z,8.61
2019-02-27T00:34:17.791Z,8.61
2019-02-27T00:34:21.989Z,8.61
2019-02-27T00:34:26.283Z,8.61
2019-02-27T00:34:35.122Z,8.6
2019-02-27T00:34:39.414Z,8.59
2019-02-27T00:34:43.705Z,8.6
2019-02-27T00:34:47.995Z,8.59
2019-02-27T00:34:52.282Z,8.59
2019-02-27T00:34:56.569Z,8.58
2019-02-27T00:35:00.989Z,8.59
2019-02-27T00:35:10.392Z,8.58
2019-02-27T00:35:14.683Z,8.58
2019-02-27T00:35:18.978Z,8.58
2019-02-27T00:35:23.173Z,8.56
2019-02-27T00:35:27.463Z,8.57
2019-02-27T00:35:31.750Z,8.57
2019-02-27T00:35:40.441Z,8.56
2019-02-27T00:35:44.737Z,8.56
2019-02-27T00:35:49.022Z,8.56
2019-02-27T00:35:53.311Z,8.56
2019-02-27T00:35:57.512Z,8.56
2019-02-27T00:36:01.818Z,8.56
2019-02-27T00:36:06.110Z,8.56
2019-02-27T00:36:15.142Z,8.55
2019-02-27T00:36:19.463Z,8.56
2019-02-27T00:36:23.753Z,8.56
2019-02-27T00:36:28.043Z,8.55
2019-02-27T00:36:32.337Z,8.55
2019-02-27T00:36:36.630Z,8.55
2019-02-27T00:36:44.770Z,8.55
2019-02-27T00:36:49.359Z,8.54
2019-02-27T00:36:53.642Z,8.55
2019-02-27T00:36:57.847Z,8.55
2019-02-27T00:37:02.132Z,8.55
2019-02-27T00:37:06.416Z,8.55
2019-02-27T00:37:10.632Z,8.54
2019-02-27T00:37:18.693Z,8.54
2019-02-27T00:37:23.214Z,8.53
2019-02-27T00:37:27.507Z,8.53
2019-02-27T00:37:31.802Z,8.53
2019-02-27T00:37:36.096Z,8.53
2019-02-27T00:37:40.385Z,8.53
2019-02-27T00:37:44.683Z,8.54
2019-02-27T00:37:53.481Z,8.53
2019-02-27T00:37:57.767Z,8.53
2019-02-27T00:38:02.066Z,8.53
2019-02-27T00:38:06.358Z,8.53
2019-02-27T00:38:10.655Z,8.54
2019-02-27T00:38:14.953Z,8.53
2019-02-27T00:38:19.237Z,8.53
2019-02-27T00:38:27.916Z,8.53
2019-02-27T00:38:32.107Z,8.53
2019-02-27T00:38:36.295Z,8.52
2019-02-27T00:38:40.593Z,8.53
2019-02-27T00:38:44.789Z,8.53
2019-02-27T00:38:49.076Z,8.53
2019-02-27T00:38:53.360Z,8.52
2019-02-27T00:39:01.528Z,8.52
2019-02-27T00:39:05.822Z,8.52
2019-02-27T00:39:10.112Z,8.52
2019-02-27T00:39:14.308Z,8.52
2019-02-27T00:39:18.594Z,8.52
2019-02-27T00:39:22.881Z,8.51
2019-02-27T00:39:30.803Z,8.51
2019-02-27T00:39:35.330Z,8.5
2019-02-27T00:39:39.619Z,8.5
2019-02-27T00:39:43.911Z,8.51
2019-02-27T00:39:48.101Z,8.51
2019-02-27T00:39:52.389Z,8.5
2019-02-27T00:39:56.590Z,8.51
2019-02-27T00:40:05.265Z,8.5
2019-02-27T00:40:09.936Z,8.49
2019-02-27T00:40:14.224Z,8.49
2019-02-27T00:40:18.419Z,8.49
2019-02-27T00:40:22.725Z,8.48
2019-02-27T00:40:27.030Z,8.49
2019-02-27T00:40:31.326Z,8.48
2019-02-27T00:40:40.994Z,8.47
2019-02-27T00:40:45.191Z,8.47
2019-02-27T00:40:49.479Z,8.48
2019-02-27T00:40:53.779Z,8.48
2019-02-27T00:40:58.061Z,8.47
2019-02-27T00:41:02.365Z,8.46
2019-02-27T00:41:06.660Z,8.46
2019-02-27T00:41:15.963Z,8.46
2019-02-27T00:41:20.149Z,8.46
2019-02-27T00:41:24.433Z,8.47
2019-02-27T00:41:28.760Z,8.46
2019-02-27T00:41:32.975Z,8.46
2019-02-27T00:41:37.277Z,8.46
2019-02-27T00:41:46.688Z,8.47
2019-02-27T00:41:51.015Z,8.46
2019-02-27T00:41:55.319Z,8.46
2019-02-27T00:41:59.519Z,8.46
2019-02-27T00:42:03.977Z,8.45
2019-02-27T00:42:08.260Z,8.46
2019-02-27T00:42:12.548Z,8.46
2019-02-27T00:42:33.992Z,8.44
2019-02-27T00:42:38.317Z,8.45
2019-02-27T00:42:42.605Z,8.46
2019-02-27T00:42:46.902Z,8.45
2019-02-27T00:42:55.757Z,8.45
2019-02-27T00:43:00.049Z,8.45
2019-02-27T00:43:04.339Z,8.45
2019-02-27T00:43:08.630Z,8.44
2019-02-27T00:43:12.938Z,8.44
2019-02-27T00:43:17.238Z,8.45
2019-02-27T00:43:21.530Z,8.44
2019-02-27T00:43:30.579Z,8.44
2019-02-27T00:43:34.881Z,8.44
2019-02-27T00:43:39.196Z,8.44
2019-02-27T00:43:43.489Z,8.45
2019-02-27T00:43:47.776Z,8.44
2019-02-27T00:43:52.082Z,8.45
2019-02-27T00:43:56.375Z,8.45
2019-02-27T00:44:04.923Z,8.45
2019-02-27T00:44:09.209Z,8.44
2019-02-27T00:44:13.507Z,8.44
2019-02-27T00:44:17.799Z,8.45
2019-02-27T00:44:22.097Z,8.45
2019-02-27T00:44:26.389Z,8.45
2019-02-27T00:44:34.859Z,8.45
2019-02-27T00:44:39.227Z,8.45
2019-02-27T00:44:43.514Z,8.44
2019-02-27T00:44:47.819Z,8.45
2019-02-27T00:44:51.922Z,8.45
2019-02-27T00:44:56.213Z,8.46
2019-02-27T00:45:00.504Z,8.45
2019-02-27T00:45:09.209Z,8.46
2019-02-27T00:45:13.410Z,8.45
2019-02-27T00:45:17.705Z,8.46
2019-02-27T00:45:21.910Z,8.46
2019-02-27T00:45:26.202Z,8.46
2019-02-27T00:45:30.544Z,8.46
2019-02-27T00:45:34.834Z,8.46
2019-02-27T00:45:43.473Z,8.46
2019-02-27T00:45:47.675Z,8.46
2019-02-27T00:45:51.959Z,8.46
2019-02-27T00:45:56.258Z,8.46
2019-02-27T00:46:00.452Z,8.47
2019-02-27T00:46:04.710Z,8.47
2019-02-27T00:46:13.991Z,8.47
2019-02-27T00:46:18.335Z,8.47
2019-02-27T00:46:22.625Z,8.47
2019-02-27T00:46:26.910Z,8.47
2019-02-27T00:46:31.201Z,8.48
2019-02-27T00:46:35.490Z,8.46
2019-02-27T00:46:39.782Z,8.47
2019-02-27T00:46:48.550Z,8.47
2019-02-27T00:46:52.851Z,8.46
2019-02-27T00:46:57.143Z,8.47
2019-02-27T00:47:01.436Z,8.47
2019-02-27T00:47:05.733Z,8.47
2019-02-27T00:47:10.024Z,8.47
2019-02-27T00:47:14.318Z,8.48
2019-02-27T00:47:23.665Z,8.47
2019-02-27T00:47:27.975Z,8.46
2019-02-27T00:47:32.258Z,8.47
2019-02-27T00:47:36.542Z,8.47
2019-02-27T00:47:40.737Z,8.47
2019-02-27T00:47:45.040Z,8.47
2019-02-27T00:47:53.891Z,8.46
2019-02-27T00:47:58.090Z,8.47
2019-02-27T00:48:02.382Z,8.48
2019-02-27T00:48:06.668Z,8.47
2019-02-27T00:48:10.865Z,8.47
2019-02-27T00:48:15.156Z,8.47
2019-02-27T00:48:19.448Z,8.47
2019-02-27T00:48:28.282Z,8.47
2019-02-27T00:48:32.578Z,8.47
2019-02-27T00:48:36.873Z,8.47
2019-02-27T00:48:41.201Z,8.47
2019-02-27T00:48:45.507Z,8.48
2019-02-27T00:48:49.821Z,8.48
2019-02-27T00:48:54.104Z,8.47
2019-02-27T00:49:02.787Z,8.47
2019-02-27T00:49:06.979Z,8.47
2019-02-27T00:49:11.263Z,8.47
2019-02-27T00:49:15.564Z,8.47
2019-02-27T00:49:19.857Z,8.47
2019-02-27T00:49:24.147Z,8.46
2019-02-27T00:49:33.048Z,8.47
2019-02-27T00:49:37.412Z,8.46
2019-02-27T00:49:41.611Z,8.47
2019-02-27T00:49:45.938Z,8.47
2019-02-27T00:49:50.227Z,8.46
2019-02-27T00:49:54.518Z,8.45
2019-02-27T00:49:58.838Z,8.45
2019-02-27T00:50:08.836Z,8.46
2019-02-27T00:50:13.152Z,8.46
2019-02-27T00:50:17.347Z,8.47
2019-02-27T00:50:21.646Z,8.46
2019-02-27T00:50:25.950Z,8.45
2019-02-27T00:50:30.146Z,8.45
2019-02-27T00:50:34.386Z,8.45
2019-02-27T00:50:42.639Z,8.46
2019-02-27T00:50:46.937Z,8.45
2019-02-27T00:50:51.236Z,8.46
2019-02-27T00:50:55.429Z,8.46
2019-02-27T00:50:59.530Z,8.46
2019-02-27T00:51:03.894Z,8.47
2019-02-27T00:51:12.863Z,8.46
2019-02-27T00:51:17.277Z,8.46
2019-02-27T00:51:21.600Z,8.46
2019-02-27T00:51:25.798Z,8.46
2019-02-27T00:51:30.090Z,8.46
2019-02-27T00:51:34.387Z,8.47
2019-02-27T00:51:38.676Z,8.47
2019-02-27T00:51:46.997Z,8.47
2019-02-27T00:51:51.287Z,8.46
2019-02-27T00:51:55.399Z,8.47
2019-02-27T00:51:59.693Z,8.46
2019-02-27T00:52:03.992Z,8.47
2019-02-27T00:52:08.285Z,8.47
2019-02-27T00:52:12.583Z,8.47
2019-02-27T00:52:20.955Z,8.48
2019-02-27T00:52:25.254Z,8.47
2019-02-27T00:52:29.553Z,8.47
2019-02-27T00:52:33.867Z,8.47
2019-02-27T00:52:38.063Z,8.48
2019-02-27T00:52:42.357Z,8.48
2019-02-27T00:52:50.807Z,8.48
2019-02-27T00:52:55.366Z,8.49
2019-02-27T00:52:59.555Z,8.49
2019-02-27T00:53:03.863Z,8.48
2019-02-27T00:53:08.063Z,8.48
2019-02-27T00:53:12.267Z,8.49
2019-02-27T00:53:16.559Z,8.49
2019-02-27T00:53:25.161Z,8.48
2019-02-27T00:53:29.517Z,8.49
2019-02-27T00:53:33.810Z,8.48
2019-02-27T00:53:38.113Z,8.49
2019-02-27T00:53:42.424Z,8.49
2019-02-27T00:53:46.618Z,8.49
2019-02-27T00:53:50.912Z,8.49
2019-02-27T00:53:59.744Z,8.48
2019-02-27T00:54:04.033Z,8.49
2019-02-27T00:54:08.228Z,8.48
2019-02-27T00:54:12.429Z,8.48
2019-02-27T00:54:16.620Z,8.48
2019-02-27T00:54:20.915Z,8.49
2019-02-27T00:54:25.207Z,8.49
2019-02-27T00:54:34.243Z,8.49
2019-02-27T00:54:38.437Z,8.49
2019-02-27T00:54:42.456Z,8.49
2019-02-27T00:54:46.745Z,8.49
2019-02-27T00:54:50.843Z,8.49
2019-02-27T00:54:55.138Z,8.5
2019-02-27T00:54:59.429Z,8.49
2019-02-27T00:55:08.239Z,8.5
2019-02-27T00:55:12.530Z,8.51
2019-02-27T00:55:16.826Z,8.5
2019-02-27T00:55:20.930Z,8.5
2019-02-27T00:55:25.222Z,8.52
2019-02-27T00:55:29.324Z,8.51
2019-02-27T00:55:38.437Z,8.52
2019-02-27T00:55:43.166Z,8.51
2019-02-27T00:55:47.362Z,8.52
2019-02-27T00:55:51.678Z,8.52
2019-02-27T00:55:55.973Z,8.52
2019-02-27T00:56:00.269Z,8.52
2019-02-27T00:56:04.565Z,8.52
2019-02-27T00:56:13.700Z,8.53
2019-02-27T00:56:17.994Z,8.52
2019-02-27T00:56:22.282Z,8.53
2019-02-27T00:56:26.575Z,8.54
2019-02-27T00:56:30.772Z,8.53
2019-02-27T00:56:34.969Z,8.53
2019-02-27T00:56:39.260Z,8.53
2019-02-27T00:56:47.938Z,8.54
2019-02-27T00:56:52.231Z,8.54
2019-02-27T00:56:56.520Z,8.53
2019-02-27T00:57:00.862Z,8.54
2019-02-27T00:57:05.187Z,8.55
2019-02-27T00:57:09.487Z,8.54
2019-02-27T00:57:20.415Z,8.55
2019-02-27T00:57:25.056Z,8.55
2019-02-27T00:57:29.253Z,8.55
2019-02-27T00:57:33.359Z,8.55
2019-02-27T00:57:37.658Z,8.56
2019-02-27T00:57:41.951Z,8.56
2019-02-27T00:57:46.238Z,8.56
2019-02-27T00:57:55.008Z,8.57
2019-02-27T00:57:59.350Z,8.57
2019-02-27T00:58:03.657Z,8.57
2019-02-27T00:58:07.975Z,8.57
2019-02-27T00:58:12.170Z,8.57
2019-02-27T00:58:16.469Z,8.57
2019-02-27T00:58:20.782Z,8.56
2019-02-27T00:58:29.145Z,8.58
2019-02-27T00:58:33.436Z,8.57
2019-02-27T00:58:37.623Z,8.58
2019-02-27T00:58:41.917Z,8.58
2019-02-27T00:58:46.254Z,8.57
2019-02-27T00:58:50.549Z,8.58
2019-02-27T00:58:54.839Z,8.58
2019-02-27T00:59:03.712Z,8.6
2019-02-27T00:59:07.917Z,8.59
2019-02-27T00:59:12.217Z,8.59
2019-02-27T00:59:16.512Z,8.6
2019-02-27T00:59:20.807Z,8.6
2019-02-27T00:59:25.096Z,8.6
2019-02-27T00:59:33.763Z,8.59
2019-02-27T00:59:38.060Z,8.6
2019-02-27T00:59:42.261Z,8.61
2019-02-27T00:59:46.575Z,8.59
2019-02-27T00:59:50.876Z,8.6
2019-02-27T00:59:55.173Z,8.6
2019-02-27T00:59:59.466Z,8.61
2019-02-27T01:00:08.694Z,8.61
2019-02-27T01:00:14.965Z,8.61
2019-02-27T01:00:19.274Z,8.6
2019-02-27T01:00:23.569Z,8.6
2019-02-27T01:00:27.776Z,8.61
2019-02-27T01:00:32.143Z,8.61
2019-02-27T01:00:40.727Z,8.62
2019-02-27T01:00:45.031Z,8.62
2019-02-27T01:00:49.257Z,8.62
2019-02-27T01:00:53.549Z,8.62
2019-02-27T01:00:57.844Z,8.61
2019-02-27T01:01:02.136Z,8.62
2019-02-27T01:01:06.642Z,8.62
2019-02-27T01:01:15.519Z,8.62
2019-02-27T01:01:19.825Z,8.63
2019-02-27T01:01:24.148Z,8.64
2019-02-27T01:01:28.434Z,8.62
2019-02-27T01:01:32.637Z,8.63
2019-02-27T01:01:36.851Z,8.63
2019-02-27T01:01:41.143Z,8.63
2019-02-27T01:01:49.557Z,8.63
2019-02-27T01:01:53.864Z,8.64
2019-02-27T01:01:58.158Z,8.64
2019-02-27T01:02:02.364Z,8.64
2019-02-27T01:02:06.467Z,8.63
2019-02-27T01:02:10.717Z,8.64
2019-02-27T01:02:15.015Z,8.64
2019-02-27T01:02:23.798Z,8.65
2019-02-27T01:02:28.092Z,8.65
2019-02-27T01:02:32.383Z,8.65
2019-02-27T01:02:36.673Z,8.64
2019-02-27T01:02:40.989Z,8.64
2019-02-27T01:02:45.284Z,8.65
2019-02-27T01:02:53.746Z,8.65
2019-02-27T01:02:58.071Z,8.65
2019-02-27T01:03:02.361Z,8.65
2019-02-27T01:03:06.674Z,8.65
2019-02-27T01:03:10.871Z,8.65
2019-02-27T01:03:15.172Z,8.64
2019-02-27T01:03:19.390Z,8.65
2019-02-27T01:03:28.304Z,8.65
2019-02-27T01:03:32.598Z,8.64
2019-02-27T01:03:36.900Z,8.65
2019-02-27T01:03:41.195Z,8.64
2019-02-27T01:03:45.487Z,8.64
2019-02-27T01:03:49.780Z,8.64
2019-02-27T01:03:54.070Z,8.63
2019-02-27T01:04:05.360Z,8.63
2019-02-27T01:04:09.648Z,8.64
2019-02-27T01:04:13.841Z,8.63
2019-02-27T01:04:18.035Z,8.64
2019-02-27T01:04:22.328Z,8.64
2019-02-27T01:04:26.521Z,8.64
2019-02-27T01:04:34.915Z,8.64
2019-02-27T01:04:39.245Z,8.63
2019-02-27T01:04:43.533Z,8.64
2019-02-27T01:04:47.827Z,8.65
2019-02-27T01:04:52.036Z,8.64
2019-02-27T01:04:56.377Z,8.64
2019-02-27T01:05:00.575Z,8.65
2019-02-27T01:05:10.195Z,8.65
2019-02-27T01:05:14.489Z,8.65
2019-02-27T01:05:18.797Z,8.66
2019-02-27T01:05:23.091Z,8.65
2019-02-27T01:05:27.288Z,8.65
2019-02-27T01:05:31.582Z,8.65
2019-02-27T01:05:35.687Z,8.65
2019-02-27T01:05:44.063Z,8.66
2019-02-27T01:05:48.355Z,8.65
2019-02-27T01:05:52.560Z,8.65
2019-02-27T01:05:56.757Z,8.64
2019-02-27T01:06:01.049Z,8.65
2019-02-27T01:06:05.249Z,8.65
2019-02-27T01:06:09.347Z,8.65
2019-02-27T01:06:18.276Z,8.64
2019-02-27T01:06:22.476Z,8.65
2019-02-27T01:06:26.775Z,8.64
2019-02-27T01:06:31.062Z,8.66
2019-02-27T01:06:35.163Z,8.65
2019-02-27T01:06:39.454Z,8.66
2019-02-27T01:06:48.173Z,8.65
2019-02-27T01:06:52.393Z,8.65
2019-02-27T01:06:56.590Z,8.65